Time;durP1;ratioP1;P1;durP2;ratioP2;P2;SDS_P1;SDS_P2;PMS_P1;PMS_P2;Temp;Humidity;BMP_temperature;BMP_pressure;BME280_temperature;BME280_humidity;BME280_pressure;Samples;Min_cycle;Max_cycle;Signal;HPM_P1;HPM_P2
2023/07/01 00:02:12;;;;;;;1.67;1.00;;;22.00;55.40;;;;;;4947282;28;20440;-19
2023/07/01 00:04:40;;;;;;;2.15;1.10;;;22.00;55.50;;;;;;4938737;28;20092;-19
2023/07/01 00:07:06;;;;;;;1.67;0.93;;;22.00;55.60;;;;;;4966130;28;20692;-19
2023/07/01 00:09:32;;;;;;;3.10;1.10;;;22.00;55.60;;;;;;4964116;28;20030;-19
2023/07/01 00:11:58;;;;;;;1.67;1.27;;;22.00;55.70;;;;;;4961173;28;20993;-19
2023/07/01 00:14:23;;;;;;;2.25;0.95;;;21.90;55.80;;;;;;4968174;28;20038;-19
2023/07/01 00:16:49;;;;;;;2.10;1.10;;;21.90;55.90;;;;;;4953838;28;20116;-19
2023/07/01 00:19:15;;;;;;;1.92;1.05;;;21.90;56.00;;;;;;4938847;28;20157;-19
2023/07/01 00:21:40;;;;;;;1.70;1.20;;;21.90;56.10;;;;;;4963804;28;20042;-19
2023/07/01 00:24:06;;;;;;;2.25;1.00;;;21.90;56.20;;;;;;4984365;28;20385;-19
2023/07/01 00:26:32;;;;;;;2.10;1.00;;;21.90;56.40;;;;;;4956526;28;20035;-19
2023/07/01 00:28:58;;;;;;;1.52;1.10;;;21.80;56.70;;;;;;4982773;28;20405;-19
2023/07/01 00:31:23;;;;;;;1.83;1.17;;;21.90;56.80;;;;;;4969704;28;20023;-20
2023/07/01 00:33:49;;;;;;;1.80;1.20;;;21.80;57.10;;;;;;4967471;28;20023;-20
2023/07/01 00:36:15;;;;;;;2.10;1.30;;;21.80;57.20;;;;;;4935051;28;20627;-19
2023/07/01 00:38:41;;;;;;;1.90;1.20;;;21.70;57.30;;;;;;4952936;28;20069;-20
2023/07/01 00:41:06;;;;;;;3.17;1.17;;;21.70;57.60;;;;;;4967148;28;20110;-19
2023/07/01 00:43:32;;;;;;;2.25;1.17;;;21.60;57.70;;;;;;4951314;28;20066;-20
2023/07/01 00:45:58;;;;;;;1.80;1.23;;;21.60;58.00;;;;;;4977359;28;20261;-19
2023/07/01 00:48:25;;;;;;;3.00;1.20;;;21.50;58.30;;;;;;4952502;28;20038;-20
2023/07/01 00:50:52;;;;;;;1.85;1.17;;;21.50;58.70;;;;;;4924888;28;20115;-20
2023/07/01 00:53:18;;;;;;;2.20;1.17;;;21.40;58.80;;;;;;4983590;28;20499;-20
2023/07/01 00:55:44;;;;;;;1.90;1.10;;;21.30;59.10;;;;;;4979645;28;20022;-19
2023/07/01 00:58:10;;;;;;;2.17;1.20;;;21.20;59.30;;;;;;4959074;28;20187;-19
2023/07/01 01:00:36;;;;;;;2.15;1.17;;;21.10;59.40;;;;;;4969554;28;20054;-19
2023/07/01 01:03:27;;;;;;;3.10;1.10;;;20.90;59.60;;;;;;4950016;28;20924;-19
2023/07/01 01:06:04;;;;;;;1.88;1.13;;;20.80;61.80;;;;;;4931039;28;20437;-18
2023/07/01 01:09:12;;;;;;;1.70;1.10;;;20.60;62.20;;;;;;4959007;28;20043;-19
2023/07/01 01:11:43;;;;;;;1.13;0.90;;;20.40;63.60;;;;;;4968200;28;20022;-19
2023/07/01 01:14:12;;;;;;;2.10;1.20;;;20.30;61.90;;;;;;4972401;28;20039;-18
2023/07/01 01:16:40;;;;;;;1.73;1.00;;;20.10;62.00;;;;;;4967273;28;20023;-19
2023/07/01 01:19:19;;;;;;;1.92;1.08;;;20.00;62.50;;;;;;4955435;28;20244;-19
2023/07/01 01:21:52;;;;;;;1.58;1.00;;;19.90;64.00;;;;;;4921870;28;20050;-19
2023/07/01 01:24:20;;;;;;;1.95;1.10;;;19.80;63.50;;;;;;4955873;28;20034;-18
2023/07/01 01:26:49;;;;;;;3.20;1.25;;;19.70;63.60;;;;;;4960904;28;20023;-18
2023/07/01 01:29:15;;;;;;;1.43;0.90;;;19.60;64.00;;;;;;4969564;28;20046;-17
2023/07/01 01:31:40;;;;;;;2.10;1.17;;;19.60;64.00;;;;;;4963186;28;20049;-18
2023/07/01 01:34:06;;;;;;;1.60;1.10;;;19.50;65.20;;;;;;4956701;28;22794;-18
2023/07/01 01:36:41;;;;;;;1.43;1.00;;;19.40;64.50;;;;;;4955579;28;20042;-18
2023/07/01 01:39:10;;;;;;;1.70;0.90;;;19.30;66.40;;;;;;4938818;28;20421;-18
2023/07/01 01:41:46;;;;;;;1.95;1.10;;;19.20;65.70;;;;;;4972094;28;20437;-19
2023/07/01 01:44:19;;;;;;;1.53;0.90;;;19.20;68.30;;;;;;4956549;28;20473;-18
2023/07/01 01:46:46;;;;;;;1.92;1.00;;;19.10;67.00;;;;;;4963141;28;20034;-19
2023/07/01 01:49:13;;;;;;;2.25;1.17;;;19.10;66.40;;;;;;4963657;28;20517;-19
2023/07/01 01:51:40;;;;;;;3.88;1.00;;;19.00;66.90;;;;;;4957122;28;20054;-19
2023/07/01 01:54:09;;;;;;;2.42;1.00;;;19.00;67.70;;;;;;4929305;28;20045;-20
2023/07/01 01:56:36;;;;;;;2.17;1.10;;;19.00;68.10;;;;;;4968486;28;20442;-20
2023/07/01 01:59:02;;;;;;;1.45;1.00;;;19.00;68.40;;;;;;4967342;28;20441;-19
2023/07/01 02:01:28;;;;;;;1.60;1.02;;;18.90;68.50;;;;;;4972692;28;20395;-18
2023/07/01 02:03:54;;;;;;;1.30;0.90;;;18.90;68.80;;;;;;4963595;28;20038;-18
2023/07/01 02:06:19;;;;;;;1.77;1.10;;;18.80;69.10;;;;;;4971908;28;20031;-19
2023/07/01 02:08:46;;;;;;;2.53;1.10;;;18.80;69.70;;;;;;4920295;28;20031;-20
2023/07/01 02:11:11;;;;;;;1.80;1.00;;;18.80;70.20;;;;;;4978213;28;20104;-18
2023/07/01 02:13:37;;;;;;;1.38;1.00;;;18.70;70.70;;;;;;4964771;28;20597;-20
2023/07/01 02:16:03;;;;;;;1.97;1.00;;;18.70;71.20;;;;;;4957295;28;21641;-19
2023/07/01 02:18:28;;;;;;;1.58;0.93;;;18.70;71.20;;;;;;4964736;28;20647;-19
2023/07/01 02:20:54;;;;;;;1.80;1.10;;;18.70;71.80;;;;;;4978690;28;20043;-18
2023/07/01 02:23:20;;;;;;;2.17;1.20;;;18.70;72.20;;;;;;4955366;28;20027;-18
2023/07/01 02:25:46;;;;;;;1.95;1.17;;;18.70;72.20;;;;;;4912594;28;20026;-19
2023/07/01 02:28:13;;;;;;;2.13;1.20;;;18.70;72.80;;;;;;4972161;28;20436;-18
2023/07/01 02:30:39;;;;;;;2.40;1.27;;;18.70;72.70;;;;;;4960683;28;20030;-20
2023/07/01 02:33:05;;;;;;;2.45;1.27;;;18.70;73.00;;;;;;4976698;28;20050;-17
2023/07/01 02:35:30;;;;;;;1.40;1.13;;;18.70;73.30;;;;;;4971315;28;20536;-19
2023/07/01 02:37:56;;;;;;;3.00;1.20;;;18.70;73.50;;;;;;4971485;28;20261;-19
2023/07/01 02:40:22;;;;;;;1.52;1.10;;;18.70;74.00;;;;;;4924869;28;20090;-20
2023/07/01 02:42:47;;;;;;;2.30;1.30;;;18.70;74.10;;;;;;4963097;28;20034;-21
2023/07/01 02:45:13;;;;;;;1.15;1.00;;;18.70;74.30;;;;;;4985734;28;20105;-21
2023/07/01 02:47:39;;;;;;;2.17;1.33;;;18.80;74.30;;;;;;4961292;28;20111;-21
2023/07/01 02:50:05;;;;;;;2.08;1.25;;;18.70;74.50;;;;;;4968532;28;20023;-21
2023/07/01 02:52:31;;;;;;;2.70;1.00;;;18.70;75.20;;;;;;4971457;28;20031;-21
2023/07/01 02:54:57;;;;;;;2.42;1.25;;;18.60;75.00;;;;;;4919617;28;20053;-21
2023/07/01 02:57:23;;;;;;;1.13;0.80;;;18.60;75.40;;;;;;4978006;28;20045;-20
2023/07/01 02:59:48;;;;;;;1.47;0.93;;;18.50;76.50;;;;;;4960448;28;20192;-21
2023/07/01 03:02:15;;;;;;;1.60;1.00;;;18.50;75.60;;;;;;4962196;28;20045;-21
2023/07/01 03:04:40;;;;;;;2.00;1.10;;;18.50;76.10;;;;;;4982135;28;20409;-21
2023/07/01 03:07:06;;;;;;;1.17;1.00;;;18.50;76.50;;;;;;4966928;28;20229;-21
2023/07/01 03:09:32;;;;;;;2.08;1.08;;;18.40;76.70;;;;;;4965621;28;20035;-21
2023/07/01 03:11:57;;;;;;;1.63;1.10;;;18.40;76.90;;;;;;4924596;28;20030;-20
2023/07/01 03:14:23;;;;;;;1.67;1.10;;;18.30;78.00;;;;;;4963469;28;20053;-20
2023/07/01 03:16:49;;;;;;;1.67;0.93;;;18.30;77.30;;;;;;4956093;28;20137;-20
2023/07/01 03:19:15;;;;;;;1.20;1.00;;;18.30;77.50;;;;;;4968910;28;20093;-20
2023/07/01 03:21:41;;;;;;;1.88;1.10;;;18.30;77.70;;;;;;4971283;28;20070;-20
2023/07/01 03:24:07;;;;;;;1.20;1.00;;;18.30;77.80;;;;;;4970989;28;20138;-20
2023/07/01 03:26:32;;;;;;;1.40;1.00;;;18.20;78.80;;;;;;4944273;28;20042;-19
2023/07/01 03:28:58;;;;;;;1.10;1.00;;;18.30;78.50;;;;;;4957363;28;20045;-20
2023/07/01 03:31:24;;;;;;;1.35;1.00;;;18.20;78.90;;;;;;4956830;28;20110;-21
2023/07/01 03:33:50;;;;;;;1.42;1.08;;;18.30;78.90;;;;;;4978998;28;20303;-20
2023/07/01 03:36:16;;;;;;;1.33;1.07;;;18.30;79.00;;;;;;4982113;28;20031;-20
2023/07/01 03:38:42;;;;;;;1.90;1.00;;;18.30;79.10;;;;;;4965024;28;20237;-20
2023/07/01 03:41:08;;;;;;;1.77;1.10;;;18.30;79.50;;;;;;4969721;28;20028;-19
2023/07/01 03:43:36;;;;;;;1.60;1.07;;;18.30;79.30;;;;;;4927026;28;20329;-20
2023/07/01 03:46:05;;;;;;;1.25;1.10;;;18.30;80.00;;;;;;4963321;28;20418;-20
2023/07/01 03:48:30;;;;;;;2.25;0.90;;;18.30;79.60;;;;;;4956203;28;20038;-20
2023/07/01 03:50:56;;;;;;;1.40;1.00;;;18.30;79.70;;;;;;4969964;28;20027;-20
2023/07/01 03:53:22;;;;;;;1.67;1.00;;;18.30;79.70;;;;;;4966065;28;20109;-22
2023/07/01 03:55:48;;;;;;;1.00;0.90;;;18.30;80.10;;;;;;4956321;28;20165;-20
2023/07/01 03:58:21;;;;;;;2.10;1.10;;;18.30;80.10;;;;;;4954546;28;20097;-21
2023/07/01 04:00:53;;;;;;;1.35;1.00;;;18.30;80.30;;;;;;4951413;28;20246;-20
2023/07/01 04:03:23;;;;;;;1.35;0.98;;;18.30;80.60;;;;;;4944990;28;20042;-21
2023/07/01 04:05:50;;;;;;;1.20;0.90;;;18.30;80.40;;;;;;4966211;28;20281;-19
2023/07/01 04:08:16;;;;;;;1.80;1.00;;;18.30;80.40;;;;;;4966361;28;20062;-21
2023/07/01 04:10:41;;;;;;;1.33;0.93;;;18.30;80.80;;;;;;4959473;28;20153;-21
2023/07/01 04:13:07;;;;;;;1.67;1.00;;;18.30;81.00;;;;;;4950632;28;20719;-20
2023/07/01 04:15:33;;;;;;;1.70;0.95;;;18.30;81.10;;;;;;4934300;28;20027;-19
2023/07/01 04:17:58;;;;;;;2.07;1.07;;;18.30;81.20;;;;;;4955172;28;20035;-21
2023/07/01 04:20:24;;;;;;;1.30;0.98;;;18.30;81.40;;;;;;4975407;28;20043;-19
2023/07/01 04:22:50;;;;;;;2.87;0.97;;;18.30;81.40;;;;;;4981207;28;20111;-20
2023/07/01 04:25:15;;;;;;;2.20;1.00;;;18.30;81.60;;;;;;4970150;28;20546;-20
2023/07/01 04:27:42;;;;;;;1.53;1.00;;;18.30;81.60;;;;;;4969344;28;20114;-20
2023/07/01 04:30:10;;;;;;;2.35;1.00;;;18.30;81.90;;;;;;4935040;28;21341;-20
2023/07/01 04:32:36;;;;;;;1.13;1.00;;;18.30;82.00;;;;;;4961803;28;20033;-19
2023/07/01 04:35:02;;;;;;;1.30;1.00;;;18.30;82.10;;;;;;4962382;28;20126;-19
2023/07/01 04:37:27;;;;;;;1.67;1.10;;;18.30;82.40;;;;;;4983684;28;20463;-20
2023/07/01 04:39:53;;;;;;;1.30;1.20;;;18.30;82.60;;;;;;4968242;28;20394;-20
2023/07/01 04:42:19;;;;;;;1.43;1.00;;;18.30;82.90;;;;;;4967283;28;20068;-19
2023/07/01 04:44:53;;;;;;;1.20;1.10;;;18.30;82.80;;;;;;4952840;28;20261;-21
2023/07/01 04:47:25;;;;;;;1.10;0.98;;;18.30;82.90;;;;;;4959256;28;20129;-19
2023/07/01 04:49:52;;;;;;;1.67;1.05;;;18.30;83.10;;;;;;4955433;28;20035;-20
2023/07/01 04:52:21;;;;;;;2.33;1.10;;;18.30;83.40;;;;;;4971715;28;20030;-19
2023/07/01 04:54:46;;;;;;;1.33;0.80;;;18.40;83.70;;;;;;4966021;28;20031;-20
2023/07/01 04:57:12;;;;;;;1.08;0.98;;;18.30;83.50;;;;;;4966814;28;20663;-19
2023/07/01 04:59:38;;;;;;;2.03;1.10;;;18.40;83.70;;;;;;4967722;28;20062;-19
2023/07/01 05:02:04;;;;;;;0.90;0.90;;;18.40;83.80;;;;;;4926799;28;20038;-18
2023/07/01 05:04:29;;;;;;;1.10;0.90;;;18.40;83.90;;;;;;4957732;28;20031;-20
2023/07/01 05:06:55;;;;;;;0.80;0.80;;;18.40;84.00;;;;;;4964770;28;20023;-18
2023/07/01 05:09:21;;;;;;;2.63;0.90;;;18.40;84.00;;;;;;4966754;28;20049;-19
2023/07/01 05:11:46;;;;;;;1.70;0.90;;;18.50;84.10;;;;;;4969009;28;20023;-18
2023/07/01 05:14:12;;;;;;;1.13;0.90;;;18.50;84.30;;;;;;4967457;28;20033;-19
2023/07/01 05:16:38;;;;;;;1.60;0.90;;;18.50;84.60;;;;;;4926575;28;20211;-18
2023/07/01 05:19:04;;;;;;;1.75;0.85;;;18.50;84.60;;;;;;4959490;28;20030;-18
2023/07/01 05:21:32;;;;;;;1.00;0.90;;;18.60;84.80;;;;;;4964841;28;20030;-19
2023/07/01 05:23:57;;;;;;;0.88;0.88;;;18.50;84.60;;;;;;4950535;28;20045;-17
2023/07/01 05:26:23;;;;;;;1.00;0.90;;;18.60;85.00;;;;;;4979198;28;20473;-19
2023/07/01 05:28:49;;;;;;;1.10;0.90;;;18.60;84.80;;;;;;4964587;28;20243;-18
2023/07/01 05:31:15;;;;;;;1.20;0.70;;;18.60;84.90;;;;;;4967847;28;20076;-18
2023/07/01 05:33:44;;;;;;;0.70;0.70;;;18.60;85.00;;;;;;4932721;28;23252;-18
2023/07/01 05:36:10;;;;;;;0.80;0.80;;;18.70;85.10;;;;;;4975145;28;20026;-17
2023/07/01 05:38:36;;;;;;;1.13;0.70;;;18.70;85.00;;;;;;4951122;28;20039;-17
2023/07/01 05:41:02;;;;;;;1.33;0.87;;;18.70;85.30;;;;;;4967127;28;20118;-17
2023/07/01 05:43:27;;;;;;;0.80;0.70;;;18.70;85.30;;;;;;4971297;28;20022;-18
2023/07/01 05:45:53;;;;;;;0.87;0.80;;;18.70;85.40;;;;;;4966859;28;20403;-17
2023/07/01 05:48:19;;;;;;;0.85;0.70;;;18.70;85.70;;;;;;4939599;28;20573;-17
2023/07/01 05:50:45;;;;;;;1.08;0.70;;;18.80;85.70;;;;;;4953304;28;20038;-17
2023/07/01 05:53:10;;;;;;;0.70;0.70;;;18.80;86.10;;;;;;4964258;28;20073;-17
2023/07/01 05:55:36;;;;;;;2.30;1.00;;;18.80;86.20;;;;;;4950243;28;20156;-17
2023/07/01 05:58:02;;;;;;;0.80;0.80;;;18.90;86.30;;;;;;4948493;28;20412;-16
2023/07/01 06:00:28;;;;;;;0.70;0.70;;;18.90;86.30;;;;;;4966969;28;20046;-18
2023/07/01 06:02:54;;;;;;;1.00;0.70;;;18.90;86.40;;;;;;4940462;28;20027;-17
2023/07/01 06:05:20;;;;;;;1.00;0.90;;;18.90;86.30;;;;;;4960166;28;20031;-17
2023/07/01 06:07:45;;;;;;;0.75;0.70;;;18.90;86.40;;;;;;4974959;28;20246;-17
2023/07/01 06:10:11;;;;;;;0.77;0.77;;;19.00;86.60;;;;;;4954046;28;20042;-17
2023/07/01 06:12:37;;;;;;;0.85;0.70;;;19.00;86.60;;;;;;4967838;28;20113;-16
2023/07/01 06:15:03;;;;;;;1.20;0.80;;;19.10;86.80;;;;;;4971216;28;20034;-17
2023/07/01 06:17:29;;;;;;;1.00;0.80;;;19.00;86.80;;;;;;4950360;28;20022;-18
2023/07/01 06:19:54;;;;;;;0.90;0.85;;;19.10;86.90;;;;;;4971261;28;20031;-17
2023/07/01 06:22:20;;;;;;;0.70;0.70;;;19.10;87.20;;;;;;4952291;28;20040;-17
2023/07/01 06:24:46;;;;;;;1.00;0.82;;;19.10;87.10;;;;;;4954573;28;20705;-16
2023/07/01 06:27:11;;;;;;;0.80;0.80;;;19.20;87.00;;;;;;4971146;28;20046;-16
2023/07/01 06:29:37;;;;;;;1.00;0.88;;;19.20;87.10;;;;;;4968650;28;20735;-16
2023/07/01 06:32:03;;;;;;;1.17;1.07;;;19.20;87.00;;;;;;4972846;28;20018;-17
2023/07/01 06:34:29;;;;;;;1.05;0.95;;;19.30;87.20;;;;;;4957342;28;20041;-17
2023/07/01 06:36:54;;;;;;;0.90;0.90;;;19.30;87.00;;;;;;4959299;28;20031;-16
2023/07/01 06:39:20;;;;;;;1.13;1.00;;;19.30;87.10;;;;;;4970792;28;20121;-16
2023/07/01 06:41:46;;;;;;;1.50;1.08;;;19.40;87.00;;;;;;4934729;28;20657;-16
2023/07/01 06:44:12;;;;;;;0.70;0.70;;;19.40;87.00;;;;;;4972065;28;20038;-16
2023/07/01 06:46:38;;;;;;;0.90;0.90;;;19.40;87.20;;;;;;4967385;28;20018;-16
2023/07/01 06:49:04;;;;;;;0.70;0.70;;;19.40;87.20;;;;;;4969430;28;20030;-18
2023/07/01 06:51:29;;;;;;;0.90;0.80;;;19.40;87.30;;;;;;4919983;28;20110;-19
2023/07/01 06:53:55;;;;;;;0.90;0.80;;;19.40;87.40;;;;;;4979830;28;20386;-18
2023/07/01 06:56:21;;;;;;;1.90;0.80;;;19.40;87.80;;;;;;4965531;28;20065;-19
2023/07/01 06:58:46;;;;;;;0.70;0.70;;;19.40;88.00;;;;;;4956025;28;20374;-18
2023/07/01 07:01:12;;;;;;;1.33;0.80;;;19.40;88.10;;;;;;4971907;28;20503;-18
2023/07/01 07:03:39;;;;;;;0.80;0.80;;;19.40;88.00;;;;;;4967429;28;20114;-18
2023/07/01 07:06:06;;;;;;;0.83;0.77;;;19.40;88.00;;;;;;4941433;28;20026;-18
2023/07/01 07:08:32;;;;;;;0.90;0.80;;;19.40;88.00;;;;;;4959085;28;20042;-19
2023/07/01 07:10:58;;;;;;;0.95;0.85;;;19.40;88.10;;;;;;4972347;28;20493;-18
2023/07/01 07:13:24;;;;;;;0.70;0.70;;;19.40;88.30;;;;;;4950470;28;20037;-19
2023/07/01 07:15:49;;;;;;;1.20;0.80;;;19.40;88.50;;;;;;4967901;28;20383;-18
2023/07/01 07:18:15;;;;;;;0.80;0.80;;;19.40;88.80;;;;;;4984603;28;20037;-19
2023/07/01 07:20:41;;;;;;;1.37;0.80;;;19.40;88.60;;;;;;4979611;28;20235;-19
2023/07/01 07:23:07;;;;;;;0.70;0.70;;;19.40;88.90;;;;;;4931546;28;20709;-18
2023/07/01 07:25:33;;;;;;;1.27;0.80;;;19.40;88.90;;;;;;4965635;28;20026;-20
2023/07/01 07:28:00;;;;;;;1.00;0.77;;;19.40;88.80;;;;;;4951796;28;20033;-19
2023/07/01 07:30:26;;;;;;;0.60;0.60;;;19.40;89.10;;;;;;4967939;28;20034;-19
2023/07/01 07:32:52;;;;;;;0.82;0.60;;;19.40;89.60;;;;;;4984276;28;20730;-18
2023/07/01 07:35:18;;;;;;;0.73;0.70;;;19.40;89.40;;;;;;4971035;28;20030;-20
2023/07/01 07:37:44;;;;;;;0.63;0.63;;;19.40;89.50;;;;;;4928192;28;20224;-19
2023/07/01 07:40:11;;;;;;;0.68;0.68;;;19.50;89.80;;;;;;4969033;28;20023;-19
2023/07/01 07:42:37;;;;;;;0.90;0.70;;;19.50;90.00;;;;;;4978725;28;20145;-19
2023/07/01 07:45:03;;;;;;;0.60;0.60;;;19.50;90.00;;;;;;4968667;28;20049;-20
2023/07/01 07:47:29;;;;;;;0.98;0.50;;;19.50;90.10;;;;;;4973846;28;20035;-20
2023/07/01 07:49:55;;;;;;;0.77;0.77;;;19.50;90.10;;;;;;4971156;28;20027;-20
2023/07/01 07:52:21;;;;;;;0.60;0.60;;;19.50;90.20;;;;;;4954636;28;20033;-20
2023/07/01 07:54:47;;;;;;;0.60;0.60;;;19.50;90.20;;;;;;4936741;28;20258;-20
2023/07/01 07:57:13;;;;;;;0.60;0.60;;;19.60;90.20;;;;;;4970851;28;20069;-19
2023/07/01 07:59:43;;;;;;;0.70;0.70;;;19.50;90.30;;;;;;4948423;28;20236;-19
2023/07/01 08:02:09;;;;;;;0.63;0.63;;;19.50;90.50;;;;;;4956467;28;20050;-20
2023/07/01 08:04:38;;;;;;;0.90;0.70;;;19.60;90.30;;;;;;4969999;28;20124;-19
2023/07/01 08:07:04;;;;;;;0.68;0.63;;;19.60;90.50;;;;;;4966992;28;20030;-20
2023/07/01 08:09:30;;;;;;;1.20;0.63;;;19.60;90.50;;;;;;4928320;28;20382;-19
2023/07/01 08:11:58;;;;;;;0.65;0.65;;;19.60;90.50;;;;;;4969321;28;20019;-20
2023/07/01 08:14:25;;;;;;;0.68;0.68;;;19.60;90.50;;;;;;4948988;28;20622;-19
2023/07/01 08:16:53;;;;;;;0.70;0.70;;;19.60;90.70;;;;;;4969576;28;20289;-20
2023/07/01 08:19:19;;;;;;;0.80;0.80;;;19.60;90.70;;;;;;4964437;28;20026;-20
2023/07/01 08:21:45;;;;;;;0.60;0.60;;;19.70;90.70;;;;;;4967937;28;20073;-19
2023/07/01 08:24:11;;;;;;;1.30;0.80;;;19.70;90.90;;;;;;4937574;28;20026;-20
2023/07/01 08:26:37;;;;;;;0.70;0.70;;;19.70;90.90;;;;;;4971103;28;20311;-19
2023/07/01 08:29:05;;;;;;;1.33;0.70;;;19.70;91.00;;;;;;4966923;28;20038;-20
2023/07/01 08:31:31;;;;;;;0.70;0.70;;;19.80;91.10;;;;;;4950025;28;20035;-19
2023/07/01 08:33:58;;;;;;;0.88;0.88;;;19.80;91.10;;;;;;4980424;28;20019;-20
2023/07/01 08:36:24;;;;;;;0.80;0.80;;;19.80;91.10;;;;;;4982875;28;20027;-19
2023/07/01 08:38:50;;;;;;;1.20;0.98;;;19.80;91.10;;;;;;4963401;28;20065;-20
2023/07/01 08:41:17;;;;;;;1.03;0.93;;;19.90;91.20;;;;;;4938826;28;20248;-19
2023/07/01 08:43:50;;;;;;;1.23;0.90;;;20.00;91.30;;;;;;4966378;28;20014;-19
2023/07/01 08:46:18;;;;;;;0.90;0.90;;;20.00;91.40;;;;;;4962927;28;20568;-19
2023/07/01 08:48:47;;;;;;;1.07;1.00;;;20.00;91.40;;;;;;4968160;28;20600;-19
2023/07/01 08:51:37;;;;;;;1.10;1.00;;;20.10;91.60;;;;;;4977208;28;20288;-20
2023/07/01 08:54:03;;;;;;;0.90;0.90;;;20.20;92.10;;;;;;4936892;28;20034;-20
2023/07/01 08:56:29;;;;;;;1.13;1.02;;;20.20;91.60;;;;;;4984816;28;20113;-20
2023/07/01 08:58:55;;;;;;;0.80;0.80;;;20.20;91.50;;;;;;4973273;28;20061;-20
2023/07/01 09:01:21;;;;;;;1.00;0.90;;;20.30;91.60;;;;;;4939841;28;20078;-20
2023/07/01 09:03:49;;;;;;;0.85;0.80;;;20.30;91.60;;;;;;4966805;28;20065;-21
2023/07/01 09:06:15;;;;;;;0.88;0.80;;;20.30;91.70;;;;;;4966880;28;20255;-19
2023/07/01 09:08:41;;;;;;;1.25;0.75;;;20.40;91.70;;;;;;4968714;28;20818;-20
2023/07/01 09:11:11;;;;;;;0.93;0.90;;;20.40;91.70;;;;;;4934183;28;20441;-19
2023/07/01 09:13:37;;;;;;;0.95;0.88;;;20.40;91.90;;;;;;4971859;28;20026;-20
2023/07/01 09:16:03;;;;;;;0.77;0.77;;;20.50;91.70;;;;;;4965344;28;20613;-21
2023/07/01 09:18:29;;;;;;;0.87;0.80;;;20.50;91.80;;;;;;4933739;28;20019;-19
2023/07/01 09:20:57;;;;;;;0.90;0.80;;;20.50;91.90;;;;;;4962626;28;20027;-20
2023/07/01 09:23:34;;;;;;;0.95;0.90;;;20.50;91.90;;;;;;4962615;28;20626;-20
2023/07/01 09:26:08;;;;;;;0.80;0.80;;;20.60;92.20;;;;;;4942385;28;20061;-21
2023/07/01 09:28:35;;;;;;;0.82;0.80;;;20.60;92.30;;;;;;4956492;28;20038;-20
2023/07/01 09:31:03;;;;;;;0.93;0.87;;;20.60;92.00;;;;;;4963967;28;20515;-20
2023/07/01 09:33:30;;;;;;;1.80;0.98;;;20.70;92.10;;;;;;4952093;28;20026;-19
2023/07/01 09:36:01;;;;;;;1.00;0.90;;;20.70;92.10;;;;;;4963750;28;20023;-20
2023/07/01 09:38:31;;;;;;;1.10;1.00;;;20.70;92.10;;;;;;4967504;28;20026;-20
2023/07/01 09:41:18;;;;;;;1.13;1.02;;;20.80;92.30;;;;;;4945364;28;20026;-20
2023/07/01 09:43:44;;;;;;;1.13;1.00;;;20.80;92.50;;;;;;4957858;28;20643;-19
2023/07/01 09:46:10;;;;;;;1.40;1.00;;;20.90;92.20;;;;;;4966366;28;20299;-19
2023/07/01 09:48:36;;;;;;;1.17;1.00;;;20.90;92.30;;;;;;4949351;28;21217;-19
2023/07/01 09:51:03;;;;;;;1.10;1.00;;;20.90;92.40;;;;;;4961858;28;20732;-20
2023/07/01 09:53:32;;;;;;;1.65;1.10;;;21.00;92.50;;;;;;4967702;28;20046;-18
2023/07/01 09:56:04;;;;;;;1.20;1.10;;;21.00;92.60;;;;;;4968974;28;20121;-20
2023/07/01 09:58:33;;;;;;;1.30;1.13;;;21.10;92.90;;;;;;4931422;28;20029;-19
2023/07/01 10:01:03;;;;;;;1.40;1.05;;;21.20;92.70;;;;;;4962241;28;20057;-19
2023/07/01 10:03:29;;;;;;;1.60;1.00;;;21.20;92.80;;;;;;4981843;28;20600;-18
2023/07/01 10:05:55;;;;;;;2.22;1.23;;;21.30;92.90;;;;;;4946184;28;20240;-19
2023/07/01 10:08:21;;;;;;;1.30;1.10;;;21.40;93.00;;;;;;4963613;28;20241;-18
2023/07/01 10:11:00;;;;;;;1.20;1.10;;;21.50;93.10;;;;;;4965197;28;20029;-19
2023/07/01 10:13:28;;;;;;;1.30;1.20;;;21.60;93.20;;;;;;4951250;28;20476;-18
2023/07/01 10:15:54;;;;;;;1.30;1.20;;;21.70;93.10;;;;;;4952274;28;20649;-19
2023/07/01 10:18:21;;;;;;;1.33;1.20;;;21.70;93.10;;;;;;4963241;28;20362;-18
2023/07/01 10:20:49;;;;;;;1.77;1.20;;;21.80;93.10;;;;;;4948994;28;20133;-19
2023/07/01 10:23:15;;;;;;;1.37;1.20;;;21.90;93.20;;;;;;4963398;28;20026;-18
2023/07/01 10:25:41;;;;;;;2.40;1.20;;;22.00;93.40;;;;;;4967745;28;20041;-19
2023/07/01 10:28:08;;;;;;;1.58;1.30;;;22.10;93.50;;;;;;4935517;28;21141;-18
2023/07/01 10:30:46;;;;;;;1.52;1.33;;;22.30;93.70;;;;;;4948367;28;20030;-18
2023/07/01 10:33:27;;;;;;;1.60;1.33;;;22.40;93.80;;;;;;4967846;28;20300;-17
2023/07/01 10:36:13;;;;;;;1.67;1.20;;;22.70;93.70;;;;;;4949442;28;20041;-18
2023/07/01 10:38:38;;;;;;;1.60;1.20;;;22.90;93.40;;;;;;4963525;28;20035;-17
2023/07/01 10:41:05;;;;;;;1.35;1.20;;;23.10;94.10;;;;;;4959643;28;20097;-17
2023/07/01 10:43:38;;;;;;;2.03;1.13;;;23.30;93.50;;;;;;4968492;28;20774;-17
2023/07/01 10:46:11;;;;;;;1.43;1.20;;;23.50;92.70;;;;;;4928305;28;20030;-18
2023/07/01 10:49:00;;;;;;;1.08;0.98;;;23.50;92.10;;;;;;4970896;28;20037;-17
2023/07/01 10:51:26;;;;;;;1.60;1.02;;;23.50;92.10;;;;;;4954962;28;20039;-16
2023/07/01 10:54:04;;;;;;;1.00;0.90;;;23.50;92.60;;;;;;4968074;28;20135;-18
2023/07/01 10:56:31;;;;;;;2.60;1.00;;;23.60;92.80;;;;;;4985363;28;20034;-17
2023/07/01 10:59:22;;;;;;;1.38;1.10;;;23.70;93.20;;;;;;4952666;28;20019;-17
2023/07/01 11:01:56;;;;;;;1.90;1.10;;;23.90;92.00;;;;;;4974081;28;20065;-17
2023/07/01 11:04:24;;;;;;;1.10;0.90;;;24.00;92.20;;;;;;4962485;28;20728;-16
2023/07/01 11:06:52;;;;;;;1.55;0.95;;;24.00;92.20;;;;;;4952809;28;20042;-17
2023/07/01 11:09:32;;;;;;;0.80;0.80;;;24.10;91.80;;;;;;4964761;28;20316;-16
2023/07/01 11:12:01;;;;;;;1.42;1.00;;;24.00;91.30;;;;;;4967545;28;20038;-17
2023/07/01 11:14:35;;;;;;;1.33;0.90;;;24.00;91.70;;;;;;4971007;28;20413;-16
2023/07/01 11:17:15;;;;;;;1.60;1.08;;;24.10;91.50;;;;;;4916740;28;20042;-17
2023/07/01 11:19:41;;;;;;;2.85;1.30;;;24.10;91.30;;;;;;4973310;28;20558;-16
2023/07/01 11:22:11;;;;;;;1.67;1.10;;;24.20;92.50;;;;;;4950964;28;20026;-16
2023/07/01 11:24:37;;;;;;;2.10;1.20;;;24.40;92.40;;;;;;4969487;28;20559;-16
2023/07/01 11:27:07;;;;;;;2.30;1.20;;;24.60;92.40;;;;;;4966836;28;20091;-17
2023/07/01 11:29:32;;;;;;;1.40;1.25;;;24.70;91.90;;;;;;4988652;28;20568;-16
2023/07/01 11:32:00;;;;;;;2.13;1.00;;;24.80;91.70;;;;;;4936041;28;20033;-17
2023/07/01 11:34:27;;;;;;;1.80;1.27;;;24.90;91.30;;;;;;4964866;28;20604;-17
2023/07/01 11:36:53;;;;;;;1.60;1.20;;;24.90;91.10;;;;;;4969268;28;20027;-17
2023/07/01 11:39:19;;;;;;;1.63;1.27;;;24.90;91.10;;;;;;4958871;28;20368;-16
2023/07/01 11:41:49;;;;;;;2.33;1.40;;;25.00;91.10;;;;;;4956632;28;20783;-17
2023/07/01 11:44:17;;;;;;;1.85;1.35;;;25.00;90.80;;;;;;4981457;28;20034;-17
2023/07/01 11:46:44;;;;;;;2.40;1.50;;;25.10;91.10;;;;;;4943423;28;20038;-17
2023/07/01 11:49:15;;;;;;;1.80;1.40;;;25.20;91.00;;;;;;4973462;28;20030;-16
2023/07/01 11:51:42;;;;;;;2.45;1.20;;;25.30;90.50;;;;;;4965514;28;20018;-17
2023/07/01 11:54:08;;;;;;;1.30;1.10;;;25.40;90.60;;;;;;4981356;28;20026;-17
2023/07/01 11:56:34;;;;;;;1.88;1.13;;;25.40;90.40;;;;;;4965956;28;20516;-17
2023/07/01 11:59:00;;;;;;;2.17;1.23;;;25.40;90.00;;;;;;4965014;28;20211;-17
2023/07/01 12:01:27;;;;;;;1.63;1.00;;;25.40;89.50;;;;;;4959836;28;20601;-16
2023/07/01 12:03:55;;;;;;;2.03;1.20;;;25.30;88.70;;;;;;4931954;28;20291;-17
2023/07/01 12:06:22;;;;;;;1.27;0.90;;;25.30;88.40;;;;;;4969308;28;20158;-16
2023/07/01 12:08:52;;;;;;;1.63;0.90;;;25.20;88.60;;;;;;4964801;28;20022;-17
2023/07/01 12:11:20;;;;;;;1.83;1.10;;;25.20;88.60;;;;;;4968532;28;20049;-17
2023/07/01 12:13:45;;;;;;;2.13;1.10;;;25.20;88.30;;;;;;4964113;28;20116;-17
2023/07/01 12:16:12;;;;;;;1.63;1.08;;;25.00;88.10;;;;;;4982056;28;20161;-16
2023/07/01 12:18:38;;;;;;;2.57;1.10;;;25.00;87.60;;;;;;4939408;28;20065;-17
2023/07/01 12:21:04;;;;;;;1.73;1.20;;;24.90;87.20;;;;;;4961478;28;20468;-16
2023/07/01 12:23:42;;;;;;;1.30;1.10;;;24.80;87.60;;;;;;4965877;28;20098;-17
2023/07/01 12:26:09;;;;;;;1.80;1.20;;;24.70;87.90;;;;;;4968423;28;20571;-16
2023/07/01 12:28:39;;;;;;;2.17;1.20;;;24.60;89.90;;;;;;4964039;28;20035;-17
2023/07/01 12:31:05;;;;;;;2.67;1.20;;;24.70;90.40;;;;;;4963011;28;20382;-16
2023/07/01 12:33:31;;;;;;;2.20;1.15;;;24.70;90.80;;;;;;4941774;28;20058;-17
2023/07/01 12:35:57;;;;;;;2.50;1.27;;;24.90;91.00;;;;;;4917839;28;20697;-17
2023/07/01 12:38:23;;;;;;;1.30;1.10;;;25.00;90.80;;;;;;4963713;28;20018;-18
2023/07/01 12:40:50;;;;;;;1.98;1.30;;;25.10;90.70;;;;;;4938992;28;20341;-17
2023/07/01 12:43:16;;;;;;;2.42;1.35;;;25.30;90.30;;;;;;4964862;28;20014;-18
2023/07/01 12:45:41;;;;;;;2.20;1.37;;;25.30;90.00;;;;;;4964355;28;20055;-17
2023/07/01 12:48:07;;;;;;;2.55;1.20;;;25.40;89.70;;;;;;4969485;28;20026;-17
2023/07/01 12:50:33;;;;;;;1.30;1.20;;;25.30;88.90;;;;;;4926062;28;20130;-18